Time;durP1;ratioP1;P1;durP2;ratioP2;P2;SDS_P1;SDS_P2;PMS_P1;PMS_P2;Temp;Humidity;BMP_temperature;BMP_pressure;BME280_temperature;BME280_humidity;BME280_pressure;Samples;Min_cycle;Max_cycle;Signal;HPM_P1;HPM_P2
2022/02/02 00:00:28;;;;;;;3.30;0.90;;;;;;;-149.78;100.00;50365.84;5016076;28;20033;-63
2022/02/02 00:02:58;;;;;;;2.33;0.82;;;;;;;-149.78;100.00;50369.75;5014731;28;20040;-63
2022/02/02 00:08:02;;;;;;;4.93;0.80;;;;;;;-149.78;100.00;50346.28;5014062;28;20060;-63
2022/02/02 00:13:14;;;;;;;0.60;0.55;;;;;;;-149.78;100.00;50367.78;5018499;28;20516;-63
2022/02/02 00:15:52;;;;;;;4.45;0.77;;;;;;;-149.78;100.00;50330.63;5017675;28;20030;-62
2022/02/02 00:18:46;;;;;;;2.22;0.75;;;;;;;-149.78;100.00;50350.19;5017279;28;20033;-63
2022/02/02 00:21:16;;;;;;;1.48;0.60;;;;;;;-149.78;100.00;50361.91;5014510;28;20044;-63
2022/02/02 00:23:46;;;;;;;2.13;0.70;;;;;;;-149.78;100.00;50361.91;5015057;28;20058;-63
2022/02/02 00:26:18;;;;;;;1.40;0.75;;;;;;;-149.78;100.00;50377.56;5015608;28;20033;-63
2022/02/02 00:28:49;;;;;;;0.70;0.60;;;;;;;-149.78;100.00;50377.56;5017377;28;20094;-63
2022/02/02 00:31:21;;;;;;;0.82;0.70;;;;;;;-149.78;100.00;50361.91;5016266;28;20188;-63
2022/02/02 00:33:53;;;;;;;0.73;0.43;;;;;;;-149.78;100.00;50373.66;5016356;28;20079;-63
2022/02/02 00:36:23;;;;;;;0.70;0.70;;;;;;;-149.78;100.00;50377.56;5013985;28;21050;-63
2022/02/02 00:38:49;;;;;;;1.65;0.75;;;;;;;-149.78;100.00;50377.56;5013477;28;20045;-63
2022/02/02 00:41:15;;;;;;;1.23;0.73;;;;;;;-149.78;100.00;50346.28;5014671;28;20040;-62
2022/02/02 00:43:42;;;;;;;2.47;0.80;;;;;;;-149.78;100.00;50361.91;5015838;28;20036;-63
2022/02/02 00:46:07;;;;;;;3.85;1.00;;;;;;;-149.78;100.00;50359.97;5015705;28;20120;-63
2022/02/02 00:48:34;;;;;;;2.58;0.80;;;;;;;-149.78;100.00;50346.28;5014803;28;20043;-63
2022/02/02 00:51:00;;;;;;;1.13;0.82;;;;;;;-149.78;100.00;50373.66;5012734;28;20048;-62
2022/02/02 00:53:26;;;;;;;1.27;0.80;;;;;;;-149.78;100.00;50381.47;5015351;28;20041;-62
2022/02/02 00:55:54;;;;;;;1.90;0.82;;;;;;;-149.78;100.00;50338.44;5015983;28;20522;-63
2022/02/02 00:58:23;;;;;;;1.40;0.70;;;;;;;-149.78;100.00;50369.75;5012364;28;20041;-62
2022/02/02 01:00:49;;;;;;;0.73;0.63;;;;;;;-149.78;100.00;50354.09;5020794;28;20048;-62
2022/02/02 01:03:14;;;;;;;0.50;0.50;;;;;;;-149.78;100.00;50350.19;5013548;28;20037;-62
2022/02/02 01:05:40;;;;;;;0.93;0.75;;;;;;;-149.78;100.00;50358.00;5016020;28;20558;-62
2022/02/02 01:11:00;;;;;;;0.63;0.60;;;;;;;-149.78;100.00;50358.00;5016226;28;20148;-62
2022/02/02 01:18:36;;;;;;;0.80;0.60;;;;;;;-149.78;100.00;50361.91;5014887;28;20048;-62
2022/02/02 01:21:05;;;;;;;;;;;;;;;-149.78;100.00;50342.38;5014673;28;20595;-62
2022/02/02 01:29:01;;;;;;;0.93;0.50;;;;;;;-149.78;100.00;50342.38;5013968;28;20033;-62
2022/02/02 01:31:27;;;;;;;0.63;0.63;;;;;;;-149.78;100.00;50385.38;5014620;28;20028;-62
2022/02/02 01:33:52;;;;;;;0.65;0.40;;;;;;;-149.78;100.00;50359.97;5013992;28;20508;-63
2022/02/02 01:36:22;;;;;;;1.05;0.60;;;;;;;-149.78;100.00;50377.56;5015038;28;20037;-63
2022/02/02 01:38:50;;;;;;;0.70;0.50;;;;;;;-149.78;100.00;50359.97;5014883;28;20040;-63
2022/02/02 01:41:30;;;;;;;2.72;0.50;;;;;;;-149.78;100.00;50412.78;5013272;28;20091;-63
2022/02/02 01:44:13;;;;;;;0.40;0.40;;;;;;;-149.78;100.00;50393.22;5014445;28;20053;-63
2022/02/02 01:46:40;;;;;;;0.50;0.50;;;;;;;-149.78;100.00;50389.31;5014815;28;20056;-63
2022/02/02 01:50:01;;;;;;;1.75;0.50;;;;;;;-149.78;100.00;50373.66;5014361;28;20034;-63
2022/02/02 01:52:16;;;;;;;0.80;0.60;;;;;;;-149.78;100.00;50367.78;5015234;28;21317;-63
2022/02/02 01:57:39;;;;;;;1.15;0.90;;;;;;;-149.78;100.00;50383.44;5011635;28;20034;-63
2022/02/02 02:00:00;;;;;;;1.58;1.23;;;;;;;-149.78;100.00;50385.38;5017854;28;20036;-63
2022/02/02 02:02:26;;;;;;;2.10;1.30;;;;;;;-149.78;100.00;50391.25;5016902;28;20033;-63
2022/02/02 02:04:51;;;;;;;5.80;1.90;;;;;;;-149.78;100.00;50311.06;5013537;28;20037;-63
2022/02/02 02:07:17;;;;;;;4.53;2.17;;;;;;;-149.78;100.00;50365.84;5014199;28;21190;-63
2022/02/02 02:09:43;;;;;;;3.85;2.47;;;;;;;-149.78;100.00;50361.91;5013165;28;20101;-63
2022/02/02 02:12:10;;;;;;;4.38;2.42;;;;;;;-149.78;100.00;50342.38;5015018;28;20434;-63
2022/02/02 02:14:50;;;;;;;4.82;2.35;;;;;;;-149.78;100.00;50348.22;5011853;28;20808;-63
2022/02/02 02:17:16;;;;;;;6.78;2.45;;;;;;;-149.78;100.00;50342.38;5014200;28;20067;-63
2022/02/02 02:19:47;;;;;;;3.38;1.90;;;;;;;-149.78;100.00;50330.63;5011158;28;20408;-63
2022/02/02 02:22:15;;;;;;;4.72;1.60;;;;;;;-149.78;100.00;50367.78;5010148;28;20057;-63
2022/02/02 02:24:42;;;;;;;2.03;1.35;;;;;;;-149.78;100.00;50340.41;5012104;28;20044;-63
2022/02/02 02:27:12;;;;;;;1.92;1.42;;;;;;;-149.78;100.00;50359.97;5014833;28;20052;-63
2022/02/02 02:56:05;;;;;;;3.22;2.08;;;;;;;-149.78;100.00;50397.13;5013022;28;20033;-64
2022/02/02 03:01:30;;;;;;;5.72;3.00;;;;;;;-149.78;100.00;50346.28;5014283;28;20044;-63
2022/02/02 04:00:40;;;;;;;1.80;1.30;;;;;;;-149.78;100.00;50373.66;5019218;28;20144;-63
2022/02/02 04:05:54;;;;;;;5.82;2.00;;;;;;;-149.78;100.00;50365.84;5013501;28;20049;-63
2022/02/02 04:10:45;;;;;;;3.50;1.40;;;;;;;-149.78;100.00;50350.19;5015660;28;20033;-63
2022/02/02 04:37:44;;;;;;;1.25;1.00;;;;;;;-149.78;100.00;50393.22;5011109;28;20560;-62
2022/02/02 05:06:55;;;;;;;5.70;1.40;;;;;;;-149.78;100.00;50379.53;5011602;28;20033;-62
2022/02/02 05:09:52;;;;;;;1.15;1.05;;;;;;;-149.78;100.00;50314.97;5011348;28;20163;-62
2022/02/02 05:24:31;;;;;;;2.95;1.60;;;;;;;-149.78;100.00;50373.66;5008329;28;20091;-62
2022/02/02 05:53:21;;;;;;;2.03;1.50;;;;;;;-149.78;100.00;50346.28;5012291;28;20036;-62
2022/02/02 05:55:48;;;;;;;1.15;1.00;;;;;;;-149.78;100.00;50354.09;5013223;28;20120;-62
2022/02/02 05:58:15;;;;;;;2.15;1.10;;;;;;;-149.78;100.00;50393.22;5015111;28;20040;-62
2022/02/02 06:00:41;;;;;;;1.95;0.90;;;;;;;-149.78;100.00;50377.56;5023016;28;20037;-62
2022/02/02 06:03:14;;;;;;;1.13;1.02;;;;;;;-149.78;100.00;50365.84;5034180;28;20113;-62
2022/02/02 06:05:42;;;;;;;1.70;1.27;;;;;;;-149.78;100.00;50389.31;5033506;28;20414;-62
2022/02/02 06:08:13;;;;;;;4.20;1.20;;;;;;;-149.78;100.00;50363.88;5031306;28;20492;-62
2022/02/02 06:10:40;;;;;;;2.25;1.30;;;;;;;-149.78;100.00;50389.31;5014968;28;20056;-62
2022/02/02 06:13:06;;;;;;;4.43;1.38;;;;;;;-149.78;100.00;50358.00;5014798;28;20496;-62
2022/02/02 06:15:34;;;;;;;5.30;1.30;;;;;;;-149.78;100.00;50358.00;5014469;28;20041;-62
2022/02/02 06:18:01;;;;;;;2.15;1.35;;;;;;;-149.78;100.00;50387.34;5014721;28;20385;-62
2022/02/02 06:20:27;;;;;;;3.83;1.25;;;;;;;-149.78;100.00;50348.22;5014279;28;20053;-62
2022/02/02 06:23:14;;;;;;;4.38;1.50;;;;;;;-149.78;100.00;50342.38;5013370;28;20784;-63
2022/02/02 06:25:52;;;;;;;1.50;1.05;;;;;;;-149.78;100.00;50373.66;5013099;28;20025;-62
2022/02/02 06:28:23;;;;;;;3.42;1.48;;;;;;;-149.78;100.00;50381.47;5015518;28;20576;-62
2022/02/02 06:31:01;;;;;;;2.10;1.60;;;;;;;-149.78;100.00;50377.56;5013604;28;20060;-62
2022/02/02 06:33:36;;;;;;;8.38;1.80;;;;;;;-149.78;100.00;50369.75;5013853;28;20041;-62
2022/02/02 06:36:09;;;;;;;4.63;2.05;;;;;;;-149.78;100.00;50383.44;5015138;28;20710;-63
2022/02/02 06:38:35;;;;;;;3.35;1.60;;;;;;;-149.78;100.00;50389.31;5010706;28;20516;-62
2022/02/02 06:41:01;;;;;;;2.15;1.58;;;;;;;-149.78;100.00;50377.56;5011692;28;20435;-62
2022/02/02 06:43:28;;;;;;;3.95;1.75;;;;;;;-149.78;100.00;50369.75;5013893;28;20045;-62
2022/02/02 06:45:57;;;;;;;2.95;2.50;;;;;;;-149.78;100.00;50358.00;5012459;28;20945;-62
2022/02/02 06:48:23;;;;;;;5.22;2.40;;;;;;;-149.78;100.00;50336.50;5013525;28;20445;-63
2022/02/02 06:51:00;;;;;;;5.18;1.90;;;;;;;-149.78;100.00;50342.38;5013007;28;20123;-62
2022/02/02 06:53:43;;;;;;;4.88;1.70;;;;;;;-149.78;100.00;50348.22;5015010;28;20456;-62
2022/02/02 06:56:52;;;;;;;5.20;1.95;;;;;;;-149.78;100.00;50350.19;5012191;28;20064;-64
2022/02/02 07:10:20;;;;;;;4.05;1.80;;;;;;;-149.78;100.00;50346.28;5011325;28;20049;-65
2022/02/02 07:13:00;;;;;;;1.45;1.10;;;;;;;-149.78;100.00;50358.00;5011867;28;20055;-65
2022/02/02 07:18:26;;;;;;;3.30;1.30;;;;;;;-149.78;100.00;50367.78;5006997;28;20084;-65
2022/02/02 07:24:04;;;;;;;4.10;1.38;;;;;;;-149.78;100.00;50397.13;5008023;28;20045;-65
2022/02/02 07:37:27;;;;;;;2.95;1.17;;;;;;;-149.78;100.00;50369.75;5006296;28;20352;-63
2022/02/02 07:39:59;;;;;;;4.18;1.23;;;;;;;-149.78;100.00;50365.84;5007944;28;20057;-63
2022/02/02 07:42:28;;;;;;;1.73;1.50;;;;;;;-149.78;100.00;50369.75;5005930;28;21043;-63
2022/02/02 07:45:00;;;;;;;1.85;1.35;;;;;;;-149.78;100.00;50389.31;5007931;28;20037;-63
2022/02/02 07:47:26;;;;;;;4.90;1.38;;;;;;;-149.78;100.00;50338.44;5009360;28;20044;-63
2022/02/02 07:49:56;;;;;;;3.55;1.27;;;;;;;-149.78;100.00;50383.44;5009143;28;20041;-63
2022/02/02 07:52:27;;;;;;;2.25;1.20;;;;;;;-149.78;100.00;50361.91;5008386;28;20041;-63
2022/02/02 07:54:55;;;;;;;2.95;1.20;;;;;;;-149.78;100.00;50385.38;5034008;28;20034;-62
2022/02/02 07:57:27;;;;;;;2.25;1.08;;;;;;;-149.78;100.00;50365.84;5031190;28;20097;-63
2022/02/02 07:59:57;;;;;;;2.13;1.00;;;;;;;-149.78;100.00;50389.31;5031306;28;20056;-63
2022/02/02 08:02:40;;;;;;;3.97;1.15;;;;;;;-149.78;100.00;50377.56;5033227;28;20088;-62
2022/02/02 08:05:08;;;;;;;2.33;1.45;;;;;;;-149.78;100.00;50381.47;5034349;28;20758;-63
2022/02/02 08:07:40;;;;;;;1.17;0.98;;;;;;;-149.78;100.00;50363.88;5031752;28;20073;-63
2022/02/02 08:10:18;;;;;;;1.10;1.00;;;;;;;-149.78;100.00;50361.91;5016888;28;20028;-63
2022/02/02 08:12:50;;;;;;;2.97;1.10;;;;;;;-149.78;100.00;50365.84;5034576;28;20029;-63
2022/02/02 08:15:21;;;;;;;2.42;1.10;;;;;;;-149.78;100.00;50369.75;5039797;28;20036;-63
2022/02/02 08:17:49;;;;;;;4.72;1.00;;;;;;;-149.78;100.00;50406.91;5033930;28;20134;-63
2022/02/02 08:20:15;;;;;;;9.75;1.30;;;;;;;-149.78;100.00;50365.84;5035980;28;20448;-63
2022/02/02 08:22:41;;;;;;;1.33;1.00;;;;;;;-149.78;100.00;50361.91;5034819;28;20033;-63
2022/02/02 08:25:10;;;;;;;4.43;1.30;;;;;;;-149.78;100.00;50359.97;5039850;28;20075;-63
2022/02/02 08:27:41;;;;;;;3.10;1.02;;;;;;;-149.78;100.00;50342.38;5033769;28;20053;-63
2022/02/02 08:30:09;;;;;;;1.65;1.13;;;;;;;-149.78;100.00;50359.97;5039398;28;20041;-63
2022/02/02 08:32:42;;;;;;;2.25;0.80;;;;;;;-149.78;100.00;50373.66;5036026;28;20024;-64
2022/02/02 08:35:09;;;;;;;3.42;1.25;;;;;;;-149.78;100.00;50397.13;5036603;28;20037;-64
2022/02/02 08:37:37;;;;;;;4.18;1.45;;;;;;;-149.78;100.00;50381.47;5040243;28;20037;-63
2022/02/02 08:40:54;;;;;;;3.78;1.50;;;;;;;-149.78;100.00;50346.28;5043865;28;20353;-65
2022/02/02 08:42:50;;;;;;;6.47;1.50;;;;;;;-149.78;100.00;50373.66;5033696;28;20049;-63
2022/02/02 08:45:23;;;;;;;5.57;1.50;;;;;;;-149.78;100.00;50377.56;5037224;28;20088;-63
2022/02/02 08:47:55;;;;;;;6.18;1.75;;;;;;;-149.78;100.00;50373.66;5044973;28;20047;-63
2022/02/02 08:50:28;;;;;;;5.65;1.55;;;;;;;-149.78;100.00;50348.22;5037493;28;20084;-63
2022/02/02 08:52:59;;;;;;;5.45;2.22;;;;;;;-149.78;100.00;50365.84;5037295;28;20461;-63
2022/02/02 08:55:51;;;;;;;2.90;1.73;;;;;;;-149.78;100.00;50373.66;5039891;28;20500;-62
2022/02/02 09:00:51;;;;;;;6.63;2.40;;;;;;;-149.78;100.00;50350.19;5045046;28;20116;-63
2022/02/02 09:06:01;;;;;;;8.55;2.72;;;;;;;-149.78;100.00;50401.03;5040010;28;20052;-63
2022/02/02 09:08:29;;;;;;;11.02;2.70;;;;;;;-149.78;100.00;50381.47;5042292;28;20025;-63
2022/02/02 09:25:02;;;;;;;7.88;2.83;;;;;;;-149.78;100.00;50373.66;5033442;28;20050;-63
2022/02/02 09:35:21;;;;;;;5.75;3.25;;;;;;;-149.78;100.00;50369.75;5036124;28;20040;-63
2022/02/02 09:37:48;;;;;;;7.55;2.83;;;;;;;-149.78;100.00;50369.75;5035673;28;20424;-62
2022/02/02 09:43:01;;;;;;;9.73;2.20;;;;;;;-149.78;100.00;50350.19;5033937;28;20056;-63
2022/02/02 09:45:28;;;;;;;7.85;2.13;;;;;;;-149.78;100.00;50361.91;5038134;28;20380;-62
2022/02/02 09:48:09;;;;;;;4.63;1.60;;;;;;;-149.78;100.00;50344.31;5039488;28;20064;-63
2022/02/02 09:50:42;;;;;;;5.38;1.90;;;;;;;-149.78;100.00;50363.88;5036350;28;20041;-62
2022/02/02 09:53:10;;;;;;;7.78;1.70;;;;;;;-149.78;100.00;50346.28;5042191;28;20033;-62
2022/02/02 09:56:07;;;;;;;4.60;1.70;;;;;;;-149.78;100.00;50387.34;5036861;28;20389;-62
2022/02/02 10:14:18;;;;;;;3.95;1.45;;;;;;;-149.78;100.00;50381.47;5039142;28;20040;-63
2022/02/02 10:16:49;;;;;;;3.13;1.30;;;;;;;-149.78;100.00;50348.22;5039453;28;20414;-63
2022/02/02 10:19:25;;;;;;;3.08;1.38;;;;;;;-149.78;100.00;50361.91;5032627;28;20520;-63
2022/02/02 10:21:52;;;;;;;3.40;1.20;;;;;;;-149.78;100.00;50383.44;5033782;28;20053;-63
2022/02/02 10:24:38;;;;;;;2.08;1.13;;;;;;;-149.78;100.00;50346.28;5036607;28;20409;-63
2022/02/02 10:27:04;;;;;;;3.38;1.00;;;;;;;-149.78;100.00;50358.00;5039572;28;20112;-63
2022/02/02 10:29:37;;;;;;;2.35;1.10;;;;;;;-149.78;100.00;50346.28;5036776;28;20036;-63
2022/02/02 10:32:03;;;;;;;1.92;1.33;;;;;;;-149.78;100.00;50369.75;5048191;28;20398;-63
2022/02/02 10:34:41;;;;;;;3.35;1.48;;;;;;;-149.78;100.00;50389.31;5051714;28;20029;-63
2022/02/02 10:37:19;;;;;;;4.45;1.50;;;;;;;-149.78;100.00;50354.09;5061698;28;20489;-64
2022/02/02 10:39:47;;;;;;;7.85;1.85;;;;;;;-149.78;100.00;50338.44;5057936;28;20040;-63
2022/02/02 10:42:13;;;;;;;2.25;1.73;;;;;;;-149.78;100.00;50346.28;5036084;28;20037;-64
2022/02/02 10:44:42;;;;;;;3.97;1.92;;;;;;;-149.78;100.00;50348.22;5066141;28;20039;-64
2022/02/02 10:50:03;;;;;;;4.35;2.05;;;;;;;-149.78;100.00;50354.09;5057833;28;20073;-63
2022/02/02 10:52:57;;;;;;;5.55;2.45;;;;;;;-149.78;100.00;50320.84;5040251;28;20059;-62
2022/02/02 10:58:26;;;;;;;8.38;2.53;;;;;;;-149.78;100.00;50359.97;5069757;28;20050;-63
2022/02/02 11:08:56;;;;;;;9.45;2.50;;;;;;;-149.78;100.00;50373.66;5064648;28;20035;-63
2022/02/02 11:11:22;;;;;;;7.63;2.78;;;;;;;-149.78;100.00;50348.22;5057427;28;20032;-63
2022/02/02 11:13:52;;;;;;;13.98;3.97;;;;;;;-149.78;100.00;50344.31;5058469;28;20040;-63
2022/02/02 11:16:24;;;;;;;10.25;3.35;;;;;;;-149.78;100.00;50358.00;5041002;28;20453;-63
2022/02/02 11:18:52;;;;;;;11.98;3.55;;;;;;;-149.78;100.00;50358.00;5066209;28;20079;-63
2022/02/02 11:21:21;;;;;;;12.43;3.63;;;;;;;-149.78;100.00;50352.16;5063082;28;20548;-62
2022/02/02 11:23:50;;;;;;;8.70;3.00;;;;;;;-149.78;100.00;50361.91;5057733;28;20033;-62
2022/02/02 11:26:48;;;;;;;6.88;2.97;;;;;;;-149.78;100.00;50338.44;5050771;28;20056;-63
2022/02/02 11:29:52;;;;;;;8.07;3.00;;;;;;;-149.78;100.00;50354.09;5036233;28;20025;-63
2022/02/02 11:32:18;;;;;;;11.63;3.20;;;;;;;-149.78;100.00;50383.44;5047708;28;20432;-63
2022/02/02 11:34:45;;;;;;;7.43;2.67;;;;;;;-149.78;100.00;50385.38;5046189;28;20053;-63
2022/02/02 11:37:12;;;;;;;12.45;3.00;;;;;;;-149.78;100.00;50412.78;5047600;28;20045;-63
2022/02/02 11:39:51;;;;;;;8.90;3.17;;;;;;;-149.78;100.00;50365.84;5049355;28;20033;-63
2022/02/02 11:43:09;;;;;;;7.65;3.08;;;;;;;-149.78;100.00;50361.91;5049078;28;20037;-63
2022/02/02 11:45:52;;;;;;;9.20;2.75;;;;;;;-149.78;100.00;50358.00;5046355;28;20036;-63
2022/02/02 11:48:55;;;;;;;6.45;2.78;;;;;;;-149.78;100.00;50330.63;5049779;28;20078;-63
2022/02/02 11:51:42;;;;;;;6.82;2.38;;;;;;;-149.78;100.00;50371.69;5046226;28;20041;-63
2022/02/02 11:54:10;;;;;;;7.25;2.92;;;;;;;-149.78;100.00;50330.63;5031657;28;20088;-64
2022/02/02 11:56:57;;;;;;;4.95;2.55;;;;;;;-149.78;100.00;50313.03;5032930;28;20089;-63
2022/02/02 12:00:31;;;;;;;7.38;2.50;;;;;;;-149.78;100.00;50373.66;5031474;28;20030;-63
2022/02/02 12:57:45;;;;;;;9.63;3.70;;;;;;;-149.78;100.00;50332.59;5050599;28;20037;-65
2022/02/02 13:00:21;;;;;;;11.00;3.50;;;;;;;-149.78;100.00;50385.38;5036784;28;20045;-65
2022/02/02 13:02:48;;;;;;;11.73;3.90;;;;;;;-149.78;100.00;50397.13;5042757;28;20383;-65
2022/02/02 13:05:15;;;;;;;8.02;3.33;;;;;;;-149.78;100.00;50377.56;5055465;28;20041;-65
2022/02/02 13:07:42;;;;;;;11.85;3.30;;;;;;;-149.78;100.00;50369.75;5055277;28;20045;-65
2022/02/02 13:10:12;;;;;;;30.48;14.57;;;;;;;-149.78;100.00;50340.41;5055359;28;20087;-64
2022/02/02 13:12:54;;;;;;;13.95;6.47;;;;;;;-149.78;100.00;50365.84;5055268;28;20357;-64
2022/02/02 13:15:40;;;;;;;9.80;3.75;;;;;;;-149.78;100.00;50352.16;5054926;28;20041;-64
2022/02/02 13:18:14;;;;;;;8.68;3.42;;;;;;;-149.78;100.00;50361.91;5037338;28;20029;-62
2022/02/02 13:23:24;;;;;;;9.20;3.35;;;;;;;-149.78;100.00;50346.28;5045680;28;20064;-61
2022/02/02 13:26:15;;;;;;;14.43;3.95;;;;;;;-149.78;100.00;50367.78;5050176;28;20025;-62
2022/02/02 13:28:50;;;;;;;9.10;3.75;;;;;;;-149.78;100.00;50358.00;5041830;28;20029;-62
2022/02/02 13:31:59;;;;;;;11.18;3.67;;;;;;;-149.78;100.00;50363.88;5046914;28;20029;-62
2022/02/02 13:34:54;;;;;;;15.15;3.85;;;;;;;-149.78;100.00;50338.44;5047538;28;20036;-62
2022/02/02 14:33:32;;;;;;;21.13;5.95;;;;;;;-149.78;100.00;50326.72;5042848;28;20065;-65
2022/02/02 14:36:01;;;;;;;24.52;6.47;;;;;;;-149.78;100.00;50352.16;5039325;28;20059;-64
2022/02/02 14:38:35;;;;;;;20.30;5.68;;;;;;;-149.78;100.00;50354.09;5047954;28;20068;-65
2022/02/02 14:41:51;;;;;;;18.08;6.43;;;;;;;-149.78;100.00;50361.91;5040036;28;20037;-64
2022/02/02 14:43:57;;;;;;;20.38;6.85;;;;;;;-149.78;100.00;50365.84;5042097;28;20054;-65
2022/02/02 14:46:32;;;;;;;99.25;38.97;;;;;;;-149.78;100.00;50385.38;5051269;28;20039;-64
2022/02/02 14:49:07;;;;;;;37.97;12.82;;;;;;;-149.78;100.00;50377.56;5044301;28;20064;-65
2022/02/02 15:28:52;;;;;;;290.92;89.18;;;;;;;-149.78;100.00;50346.28;5033533;28;20030;-64
2022/02/02 15:31:22;;;;;;;104.25;31.38;;;;;;;-149.78;100.00;50369.75;5039931;28;20389;-64
2022/02/02 15:33:51;;;;;;;51.15;17.98;;;;;;;-149.78;100.00;50375.63;5043864;28;20071;-64
2022/02/02 15:38:45;;;;;;;127.25;43.70;;;;;;;-149.78;100.00;50338.44;5041198;28;20082;-65
2022/02/02 15:41:19;;;;;;;33.67;10.02;;;;;;;-149.78;100.00;50346.28;5045587;28;20056;-64
2022/02/02 15:44:52;;;;;;;31.08;9.88;;;;;;;-149.78;100.00;50344.31;5041351;28;20052;-64
2022/02/02 16:00:42;;;;;;;36.35;8.50;;;;;;;-149.78;100.00;50387.34;5042118;28;20496;-62
2022/02/02 16:05:30;;;;;;;16.50;4.15;;;;;;;-149.78;100.00;50354.09;5046660;28;20033;-62
2022/02/02 16:08:03;;;;;;;32.25;7.15;;;;;;;-149.78;100.00;50361.91;5044799;28;20095;-62
2022/02/02 16:10:42;;;;;;;15.60;4.13;;;;;;;-149.78;100.00;50397.13;5050682;28;20056;-62
2022/02/02 16:13:25;;;;;;;42.97;10.70;;;;;;;-149.78;100.00;50350.19;5040504;28;20393;-62
2022/02/02 16:15:54;;;;;;;39.28;9.00;;;;;;;-149.78;100.00;50350.19;5038023;28;20037;-65
2022/02/02 16:18:36;;;;;;;27.00;6.93;;;;;;;-149.78;100.00;50397.13;5036741;28;20043;-64
2022/02/02 16:37:25;;;;;;;45.47;12.70;;;;;;;-149.78;100.00;50334.53;5046842;28;20128;-62
2022/02/02 16:39:57;;;;;;;44.58;13.32;;;;;;;-149.78;100.00;50369.75;5043310;28;20415;-62
2022/02/02 16:45:08;;;;;;;36.10;7.10;;;;;;;-149.78;100.00;50381.47;5037426;28;20037;-62
2022/02/02 16:47:34;;;;;;;19.33;4.47;;;;;;;-149.78;100.00;50350.19;5046902;28;20365;-62
2022/02/02 16:50:00;;;;;;;15.43;4.47;;;;;;;-149.78;100.00;50383.44;5034775;28;20044;-62
2022/02/02 16:52:29;;;;;;;17.27;4.85;;;;;;;-149.78;100.00;50363.88;5061598;28;20368;-62
2022/02/02 16:54:57;;;;;;;15.10;4.55;;;;;;;-149.78;100.00;50363.88;5075432;28;20549;-62
2022/02/02 16:57:35;;;;;;;25.65;6.80;;;;;;;-149.78;100.00;50369.75;5075636;28;20452;-62
2022/02/02 17:25:53;;;;;;;15.90;5.57;;;;;;;-149.78;100.00;50383.44;5035142;28;20056;-63
2022/02/02 17:35:57;;;;;;;36.85;9.50;;;;;;;-149.78;100.00;50381.47;5012993;28;20477;-63
2022/02/02 17:39:33;;;;;;;32.63;7.38;;;;;;;-149.78;100.00;50352.16;5012334;28;20123;-63
2022/02/02 18:01:25;;;;;;;30.08;7.97;;;;;;;-149.78;100.00;50387.34;5009862;28;20069;-63
2022/02/02 18:19:01;;;;;;;24.95;6.65;;;;;;;-149.78;100.00;50369.75;5016506;28;20474;-63
2022/02/02 18:21:27;;;;;;;22.67;6.67;;;;;;;-149.78;100.00;50373.66;5014855;28;20053;-63
2022/02/02 18:33:54;;;;;;;26.15;7.22;;;;;;;-149.78;100.00;50381.47;5017025;28;20036;-64
2022/02/02 18:44:58;;;;;;;27.42;8.65;;;;;;;-149.78;100.00;50387.34;5013051;28;20033;-65
2022/02/02 18:47:17;;;;;;;26.40;8.60;;;;;;;-149.78;100.00;50403.00;5013638;28;20052;-64
2022/02/02 18:57:36;;;;;;;23.00;7.95;;;;;;;-149.78;100.00;50389.31;5011741;28;20091;-65
2022/02/02 20:10:59;;;;;;;31.38;12.98;;;;;;;-149.78;100.00;50401.03;5013087;28;20037;-64
2022/02/02 20:13:25;;;;;;;30.45;12.77;;;;;;;-149.78;100.00;50397.13;5010618;28;20037;-64
2022/02/02 20:15:51;;;;;;;36.15;16.45;;;;;;;-149.78;100.00;50393.22;5014170;28;20400;-65
2022/02/02 20:18:17;;;;;;;37.22;14.70;;;;;;;-149.78;100.00;50399.09;5010984;28;20489;-65
2022/02/02 20:20:44;;;;;;;36.53;15.95;;;;;;;-149.78;100.00;50404.94;5012529;28;20057;-64
2022/02/02 20:23:11;;;;;;;40.22;18.50;;;;;;;-149.78;100.00;50379.53;5010927;28;20064;-65
2022/02/02 20:25:46;;;;;;;50.30;20.40;;;;;;;-149.78;100.00;50377.56;5016588;28;20029;-63
2022/02/02 20:28:11;;;;;;;50.70;19.42;;;;;;;-149.78;100.00;50412.78;5017805;28;20041;-63
2022/02/02 20:30:38;;;;;;;43.38;18.02;;;;;;;-149.78;100.00;50365.84;5014821;28;20049;-63
2022/02/02 20:33:05;;;;;;;45.45;18.77;;;;;;;-149.78;100.00;50397.13;5012960;28;20392;-63
2022/02/02 20:35:31;;;;;;;53.10;20.23;;;;;;;-149.78;100.00;50391.25;5012033;28;20524;-63
2022/02/02 20:37:57;;;;;;;55.95;21.80;;;;;;;-149.78;100.00;50404.94;5009457;28;20041;-63
2022/02/02 20:40:25;;;;;;;50.55;21.60;;;;;;;-149.78;100.00;50424.50;5009904;28;20812;-63
2022/02/02 21:06:58;;;;;;;44.40;18.30;;;;;;;-149.78;100.00;50383.44;5013813;28;20827;-63
2022/02/02 21:14:40;;;;;;;36.50;16.48;;;;;;;-149.78;100.00;50389.31;5015546;28;20037;-63
2022/02/02 21:17:10;;;;;;;37.40;15.95;;;;;;;-149.78;100.00;50359.97;5011827;28;20065;-63
2022/02/02 21:19:49;;;;;;;31.42;14.40;;;;;;;-149.78;100.00;50385.38;4990868;28;20542;-63
2022/02/02 21:22:14;;;;;;;30.90;14.27;;;;;;;-149.78;100.00;50424.50;5008982;28;20053;-63
2022/02/02 21:27:30;;;;;;;23.48;11.40;;;;;;;-149.78;100.00;50397.13;5007762;28;20123;-63
2022/02/02 21:29:56;;;;;;;33.73;11.83;;;;;;;-149.78;100.00;50365.84;5008036;28;20080;-63
2022/02/02 21:32:23;;;;;;;28.13;11.90;;;;;;;-149.78;100.00;50397.13;5008418;28;20120;-63
2022/02/02 21:34:51;;;;;;;20.30;7.47;;;;;;;-149.78;100.00;50389.31;5008936;28;20712;-63
2022/02/02 21:37:18;;;;;;;19.52;7.15;;;;;;;-149.78;100.00;50391.25;5009425;28;20057;-63
2022/02/02 21:39:53;;;;;;;15.52;6.32;;;;;;;-149.78;100.00;50385.38;5007879;28;20512;-63
2022/02/02 21:42:19;;;;;;;15.73;6.78;;;;;;;-149.78;100.00;50424.50;5010945;28;20049;-63
2022/02/02 21:44:45;;;;;;;22.30;7.55;;;;;;;-149.78;100.00;50375.63;5010174;28;20041;-63
2022/02/02 21:47:11;;;;;;;16.50;6.65;;;;;;;-149.78;100.00;50389.31;5009479;28;20068;-60
2022/02/02 21:49:38;;;;;;;23.58;5.88;;;;;;;-149.78;100.00;50381.47;5011404;28;20137;-60
2022/02/02 21:52:08;;;;;;;17.50;6.18;;;;;;;-149.78;100.00;50385.38;5014274;28;20029;-63
2022/02/02 21:54:35;;;;;;;16.58;6.00;;;;;;;-149.78;100.00;50404.94;5012766;28;20049;-60
2022/02/02 21:57:02;;;;;;;21.35;7.35;;;;;;;-149.78;100.00;50379.53;5007957;28;20063;-60
2022/02/02 21:59:28;;;;;;;25.23;9.65;;;;;;;-149.78;100.00;50412.78;5013226;28;20683;-60
2022/02/02 22:01:54;;;;;;;22.23;6.82;;;;;;;-149.78;100.00;50404.94;5015421;28;20063;-60
2022/02/02 22:04:19;;;;;;;18.10;6.00;;;;;;;-149.78;100.00;50385.38;5037083;28;20388;-60
2022/02/02 22:06:45;;;;;;;20.85;5.18;;;;;;;-149.78;100.00;50381.47;5020334;28;20045;-60
2022/02/02 22:09:11;;;;;;;16.23;5.20;;;;;;;-149.78;100.00;50389.31;5010956;28;20095;-60
2022/02/02 22:11:36;;;;;;;16.20;5.65;;;;;;;-149.78;100.00;50356.06;5010190;28;20034;-60
2022/02/02 22:14:07;;;;;;;15.63;5.25;;;;;;;-149.78;100.00;50406.91;5010035;28;20055;-60
2022/02/02 22:16:35;;;;;;;13.93;5.55;;;;;;;-149.78;100.00;50377.56;5011821;28;20045;-60
2022/02/02 22:19:00;;;;;;;16.67;5.38;;;;;;;-149.78;100.00;50377.56;5009038;28;20046;-60
2022/02/02 22:21:26;;;;;;;13.50;5.25;;;;;;;-149.78;100.00;50377.56;5007709;28;20103;-60
2022/02/02 22:23:52;;;;;;;10.50;4.30;;;;;;;-149.78;100.00;50401.03;5008478;28;20040;-60
2022/02/02 22:26:19;;;;;;;16.13;5.18;;;;;;;-149.78;100.00;50361.91;5011342;28;20769;-60
2022/02/02 22:28:45;;;;;;;11.32;4.18;;;;;;;-149.78;100.00;50397.13;5011826;28;20056;-60
2022/02/02 22:31:11;;;;;;;12.77;4.70;;;;;;;-149.78;100.00;50401.03;5012867;28;20225;-60
2022/02/02 22:33:38;;;;;;;23.40;5.57;;;;;;;-149.78;100.00;50348.22;5016565;28;20056;-60
2022/02/02 22:36:04;;;;;;;11.65;4.32;;;;;;;-149.78;100.00;50377.56;5012723;28;20026;-60
2022/02/02 22:38:30;;;;;;;17.17;4.18;;;;;;;-149.78;100.00;50389.31;5010452;28;20048;-60
2022/02/02 22:40:57;;;;;;;13.93;3.60;;;;;;;-149.78;100.00;50350.19;5013307;28;20124;-60